New Yoshino — JG5527 — position and weather

sailwx.info

Track history (hours):
 
Tides and Currents Weather Stations Pressure Air Temp Water Temp Dewpoint Dewpoint Depression Visibility Wind Speed Wind Dir Waves Ship Positions

New Yoshino

Last reported at 2016-Sep-29 23:19 UTC. Time now 2016-Oct-01 22:22 UTC.
Position N 35°40' E 140°57'.

Length 102 m; draft 6.6 m.

Type: Tanker. MMSI: 431300724.

Date/timePositionNaut miles runAvg speedWind from/ knotsBaromVisibWave heightAir tempDewpointWater temp
2016-Sep-29 23:19N 35°40' E 140°57'2011.5
2016-Sep-29 21:33N 35°24' E 140°41'1111.5
2016-Sep-29 20:33N 35°15' E 140°32'1412.5
2016-Sep-29 19:25N 35°04' E 140°22'3211.1
2016-Sep-29 16:33N 34°53' E 139°45'1312.5
2016-Sep-29 15:33N 35°05' E 139°44'1212.2
2016-Sep-29 14:33N 35°17' E 139°45'1110.7
2016-Sep-29 13:34N 35°28' E 139°48'10 2.0
2016-Sep-29 08:28N 35°28' E 140°01'0 0.0
2016-Sep-29 07:07N 35°28' E 140°01'31 4.6
2016-Sep-29 00:30N 35°01' E 140°17'3311.4
2016-Sep-28 21:33N 35°26' E 140°43'15 0.5
2016-Sep-27 14:33N 35°38' E 140°55'1413.6
2016-Sep-27 13:32N 35°27' E 140°45'4314.2
2016-Sep-27 10:32N 34°56' E 140°08'39 3.9
2016-Sep-27 00:33N 35°30' E 139°44'39 9.8
2016-Sep-26 20:33N 34°52' E 139°57'1212.0
2016-Sep-26 19:33N 34°58' E 140°09'7011.6
2016-Sep-26 13:33N 35°57' E 140°56'1 0.0
2016-Sep-26 00:16N 35°57' E 140°56'3211.9
2016-Sep-25 21:33N 35°26' E 140°44'5913.2
2016-Sep-25 17:05N 34°51' E 139°47'813.8
2016-Sep-25 16:32N 34°57' E 139°43'1313.1
2016-Sep-25 15:33N 35°10' E 139°45'1212.2
2016-Sep-25 14:33N 35°22' E 139°42'9 4.2
2016-Sep-25 12:31N 35°30' E 139°45'0 0.0
2016-Sep-25 11:31N 35°30' E 139°45'0 0.0
2016-Sep-25 10:31N 35°30' E 139°45'0 0.0
2016-Sep-25 09:31N 35°30' E 139°45'3 1.7
2016-Sep-25 07:34N 35°28' E 139°43'4 1.4
2016-Sep-25 04:32N 35°24' E 139°45'33 7.8
2016-Sep-25 00:16N 34°52' E 139°57'2512.7
2016-Sep-24 22:17N 35°05' E 140°24'1114.5
2016-Sep-24 21:33N 35°13' E 140°32'3014.6
2016-Sep-24 19:31N 35°37' E 140°54'1414.3
2016-Sep-24 18:33N 35°49' E 141°02'1413.7
2016-Sep-24 17:33N 36°02' E 141°06'6 0.2
2016-Sep-23 15:27N 36°06' E 141°01'2513.2
2016-Sep-23 13:33N 35°42' E 140°57'5313.1
2016-Sep-23 09:33N 35°01' E 140°17'28 9.2
2016-Sep-23 06:33N 35°02' E 139°43'2412.1
2016-Sep-23 04:33N 35°26' E 139°45'4 4.3
2016-Sep-23 03:33N 35°30' E 139°45'0 0.0
2016-Sep-23 02:33N 35°30' E 139°45'0 0.0
2016-Sep-23 01:33N 35°30' E 139°45'0 0.0
2016-Sep-23 00:33N 35°30' E 139°45'0 0.0
2016-Sep-22 23:33N 35°30' E 139°45'6 2.0
2016-Sep-22 20:32N 35°24' E 139°45'0 0.0
2016-Sep-22 12:31N 35°24' E 139°45'6 0.7
2016-Sep-22 04:33N 35°29' E 139°43'4 4.4
2016-Sep-22 03:33N 35°26' E 139°45'  
Track history (hours):
 
Tides and Currents Weather Stations Pressure Air Temp Water Temp Dewpoint Dewpoint Depression Visibility Wind Speed Wind Dir Waves Ship Positions

New Yoshino

Last reported at 2016-Sep-29 23:19 UTC. Time now 2016-Oct-01 22:22 UTC.
Position N 35°40' E 140°57'.

Length 102 m; draft 6.6 m.

Type: Tanker. MMSI: 431300724.

Date/timePositionNaut miles runAvg speedWind from/ knotsBaromVisibWave heightAir tempDewpointWater temp
2016-Sep-29 23:19N 35°40' E 140°57'2011.5
2016-Sep-29 21:33N 35°24' E 140°41'1111.5
2016-Sep-29 20:33N 35°15' E 140°32'1412.5
2016-Sep-29 19:25N 35°04' E 140°22'3211.1
2016-Sep-29 16:33N 34°53' E 139°45'1312.5
2016-Sep-29 15:33N 35°05' E 139°44'1212.2
2016-Sep-29 14:33N 35°17' E 139°45'1110.7
2016-Sep-29 13:34N 35°28' E 139°48'10 2.0
2016-Sep-29 08:28N 35°28' E 140°01'0 0.0
2016-Sep-29 07:07N 35°28' E 140°01'31 4.6
2016-Sep-29 00:30N 35°01' E 140°17'3311.4
2016-Sep-28 21:33N 35°26' E 140°43'15 0.5
2016-Sep-27 14:33N 35°38' E 140°55'1413.6
2016-Sep-27 13:32N 35°27' E 140°45'4314.2
2016-Sep-27 10:32N 34°56' E 140°08'39 3.9
2016-Sep-27 00:33N 35°30' E 139°44'39 9.8
2016-Sep-26 20:33N 34°52' E 139°57'1212.0
2016-Sep-26 19:33N 34°58' E 140°09'7011.6
2016-Sep-26 13:33N 35°57' E 140°56'1 0.0
2016-Sep-26 00:16N 35°57' E 140°56'3211.9
2016-Sep-25 21:33N 35°26' E 140°44'5913.2
2016-Sep-25 17:05N 34°51' E 139°47'813.8
2016-Sep-25 16:32N 34°57' E 139°43'1313.1
2016-Sep-25 15:33N 35°10' E 139°45'1212.2
2016-Sep-25 14:33N 35°22' E 139°42'9 4.2
2016-Sep-25 12:31N 35°30' E 139°45'0 0.0
2016-Sep-25 11:31N 35°30' E 139°45'0 0.0
2016-Sep-25 10:31N 35°30' E 139°45'0 0.0
2016-Sep-25 09:31N 35°30' E 139°45'3 1.7
2016-Sep-25 07:34N 35°28' E 139°43'4 1.4
2016-Sep-25 04:32N 35°24' E 139°45'33 7.8
2016-Sep-25 00:16N 34°52' E 139°57'2512.7
2016-Sep-24 22:17N 35°05' E 140°24'1114.5
2016-Sep-24 21:33N 35°13' E 140°32'3014.6
2016-Sep-24 19:31N 35°37' E 140°54'1414.3
2016-Sep-24 18:33N 35°49' E 141°02'1413.7
2016-Sep-24 17:33N 36°02' E 141°06'6 0.2
2016-Sep-23 15:27N 36°06' E 141°01'2513.2
2016-Sep-23 13:33N 35°42' E 140°57'5313.1
2016-Sep-23 09:33N 35°01' E 140°17'28 9.2
2016-Sep-23 06:33N 35°02' E 139°43'2412.1
2016-Sep-23 04:33N 35°26' E 139°45'4 4.3
2016-Sep-23 03:33N 35°30' E 139°45'0 0.0
2016-Sep-23 02:33N 35°30' E 139°45'0 0.0
2016-Sep-23 01:33N 35°30' E 139°45'0 0.0
2016-Sep-23 00:33N 35°30' E 139°45'0 0.0
2016-Sep-22 23:33N 35°30' E 139°45'6 2.0
2016-Sep-22 20:32N 35°24' E 139°45'0 0.0
2016-Sep-22 12:31N 35°24' E 139°45'6 0.7
2016-Sep-22 04:33N 35°29' E 139°43'4 4.4
2016-Sep-22 03:33N 35°26' E 139°45'  

Dump ship's entire track history